Time;durP1;ratioP1;P1;durP2;ratioP2;P2;SDS_P1;SDS_P2;PMS_P1;PMS_P2;Temp;Humidity;BMP_temperature;BMP_pressure;BME280_temperature;BME280_humidity;BME280_pressure;Samples;Min_cycle;Max_cycle;Signal;HPM_P1;HPM_P2
2023/05/17 00:02:23;;;;;;;9.40;2.60;;;;;;;13.50;95.52;94960.59;106558;1276;22566;-62
2023/05/17 00:04:52;;;;;;;10.10;2.80;;;;;;;13.49;95.41;94961.69;106589;1276;22532;-62
2023/05/17 00:07:20;;;;;;;6.00;2.70;;;;;;;13.55;95.95;94964.25;106580;1276;22511;-62
2023/05/17 00:09:48;;;;;;;16.10;3.30;;;;;;;13.51;94.81;94967.94;106565;1276;22506;-63
2023/05/17 00:12:17;;;;;;;7.40;3.20;;;;;;;13.48;95.17;94968.42;106592;1276;24713;-62
2023/05/17 00:14:45;;;;;;;22.60;3.10;;;;;;;13.48;95.31;94969.31;106585;1276;24286;-63
2023/05/17 00:17:13;;;;;;;12.90;3.40;;;;;;;13.45;94.95;94971.71;106531;1276;22737;-62
2023/05/17 00:19:41;;;;;;;12.10;3.10;;;;;;;13.45;95.16;94972.45;106575;1276;25373;-62
2023/05/17 00:22:09;;;;;;;7.90;2.60;;;;;;;13.45;95.18;94974.56;106623;1276;22527;-63
2023/05/17 00:24:38;;;;;;;9.20;2.50;;;;;;;13.44;95.15;94970.20;106535;1266;23795;-62
2023/05/17 00:27:06;;;;;;;12.40;3.50;;;;;;;13.41;94.81;94971.33;106627;1275;23278;-63
2023/05/17 00:29:34;;;;;;;5.90;2.20;;;;;;;13.39;94.92;94968.25;106615;1276;24453;-63
2023/05/17 00:32:04;;;;;;;14.30;4.30;;;;;;;13.43;95.56;94969.17;106614;1276;22536;-62
2023/05/17 00:34:32;;;;;;;10.00;3.00;;;;;;;13.45;95.35;94963.06;106663;1276;24196;-63
2023/05/17 00:37:00;;;;;;;13.60;3.30;;;;;;;13.48;95.60;94959.59;106550;1276;22528;-62
2023/05/17 00:39:28;;;;;;;8.20;2.90;;;;;;;13.56;96.14;94963.70;106521;1276;24228;-63
2023/05/17 00:41:59;;;;;;;19.80;3.10;;;;;;;13.59;95.80;94965.33;106768;1276;24291;-63
2023/05/17 00:44:27;;;;;;;7.70;3.00;;;;;;;13.51;94.70;94963.70;106867;1276;24359;-62
2023/05/17 00:46:58;;;;;;;9.70;2.80;;;;;;;13.48;94.70;94965.95;106677;1276;22516;-62
2023/05/17 00:49:27;;;;;;;8.30;3.00;;;;;;;13.43;94.52;94965.98;106657;1276;24381;-63
2023/05/17 00:51:55;;;;;;;13.50;2.90;;;;;;;13.39;94.54;94966.48;106594;1276;24273;-62
2023/05/17 00:54:25;;;;;;;9.70;2.70;;;;;;;13.36;94.55;94966.62;106768;1276;22515;-62
2023/05/17 00:56:55;;;;;;;12.50;2.60;;;;;;;13.34;94.59;94966.87;106619;1276;22501;-62
2023/05/17 00:59:25;;;;;;;5.80;2.40;;;;;;;13.33;94.88;94967.09;106630;1276;22544;-62
2023/05/17 01:01:54;;;;;;;10.00;2.80;;;;;;;13.31;94.76;94964.66;106531;1275;22525;-62
2023/05/17 01:04:23;;;;;;;8.80;2.70;;;;;;;13.27;94.55;94966.05;106546;1276;24266;-62
2023/05/17 01:06:51;;;;;;;9.40;2.40;;;;;;;13.29;95.33;94965.66;106763;1276;22520;-63
2023/05/17 01:09:20;;;;;;;14.10;3.30;;;;;;;13.34;95.36;94958.57;106582;1276;22517;-62
2023/05/17 01:11:55;;;;;;;21.10;3.40;;;;;;;13.35;95.23;94960.10;106567;1276;22724;-62
2023/05/17 01:14:50;;;;;;;13.70;3.80;;;;;;;13.32;94.80;94963.21;106754;1276;25275;-62
2023/05/17 01:17:39;;;;;;;15.60;3.10;;;;;;;13.24;94.40;94966.52;106650;1266;25526;-62
2023/05/17 01:20:23;;;;;;;8.80;2.80;;;;;;;13.14;94.19;94968.67;106844;1276;22570;-62
2023/05/17 01:23:10;;;;;;;9.20;2.90;;;;;;;13.08;94.44;94965.55;106559;1276;26519;-62
2023/05/17 01:26:03;;;;;;;10.30;2.90;;;;;;;13.06;94.91;94966.13;106574;1276;24206;-63
2023/05/17 01:28:33;;;;;;;13.30;3.80;;;;;;;13.13;95.95;94963.76;106599;1276;24223;-63
2023/05/17 01:31:02;;;;;;;8.40;2.80;;;;;;;13.25;96.63;94961.00;106632;1276;22516;-62
2023/05/17 01:33:31;;;;;;;10.60;2.50;;;;;;;13.29;95.43;94964.41;106668;1276;22527;-62
2023/05/17 01:36:00;;;;;;;8.00;3.00;;;;;;;13.20;94.48;94962.80;106595;1276;22544;-63
2023/05/17 01:38:29;;;;;;;10.00;2.60;;;;;;;13.15;94.69;94966.52;106597;1276;22536;-63
2023/05/17 01:41:12;;;;;;;11.60;2.80;;;;;;;13.12;94.62;94972.79;106628;1276;24203;-62
2023/05/17 01:43:50;;;;;;;9.90;2.50;;;;;;;13.10;95.01;94981.88;106577;1276;25497;-63
2023/05/17 01:46:34;;;;;;;9.00;3.40;;;;;;;13.15;95.89;94983.46;106640;1273;22520;-62
2023/05/17 01:49:14;;;;;;;13.70;2.90;;;;;;;13.17;96.04;94992.55;106591;1276;22520;-63
2023/05/17 01:51:56;;;;;;;11.10;2.40;;;;;;;13.18;95.44;94999.77;106598;1276;26628;-61
2023/05/17 01:54:31;;;;;;;13.10;3.30;;;;;;;13.15;95.14;94998.83;106609;1276;25360;-61
2023/05/17 01:57:03;;;;;;;10.20;2.70;;;;;;;13.14;95.45;94991.46;106703;1276;23085;-61
2023/05/17 01:59:33;;;;;;;8.60;2.60;;;;;;;13.16;95.78;94997.17;106553;1276;22559;-61
2023/05/17 02:02:05;;;;;;;9.20;2.80;;;;;;;13.12;95.52;94999.99;106625;1276;23925;-62
2023/05/17 02:04:36;;;;;;;13.60;5.40;;;;;;;13.07;95.34;95002.12;106568;1276;24259;-61
2023/05/17 02:07:04;;;;;;;10.40;4.40;;;;;;;13.05;95.39;95003.80;106519;1276;22574;-62
2023/05/17 02:09:33;;;;;;;11.70;3.70;;;;;;;13.03;95.36;95009.55;106401;1276;22646;-62
2023/05/17 02:12:01;;;;;;;11.60;5.00;;;;;;;12.99;96.37;95012.49;106539;1276;22947;-62
2023/05/17 02:14:29;;;;;;;9.40;4.10;;;;;;;12.95;95.91;95015.46;106580;1276;25262;-62
2023/05/17 02:16:58;;;;;;;10.10;3.70;;;;;;;12.96;96.86;95015.96;106605;1276;24083;-62
2023/05/17 02:19:26;;;;;;;14.40;4.70;;;;;;;12.98;96.97;95017.10;106524;1276;23594;-62
2023/05/17 02:21:55;;;;;;;13.10;4.10;;;;;;;12.96;97.38;95027.27;106545;1276;22520;-62
2023/05/17 02:24:23;;;;;;;10.80;4.10;;;;;;;12.93;97.59;95034.77;106575;1276;22527;-63
2023/05/17 02:26:51;;;;;;;12.10;3.90;;;;;;;12.90;98.53;95041.77;106559;1276;25384;-62
2023/05/17 02:29:19;;;;;;;15.20;4.10;;;;;;;12.91;98.09;95039.46;106636;1276;22518;-62
2023/05/17 02:31:48;;;;;;;12.50;3.80;;;;;;;12.96;98.17;95036.95;106672;1276;23226;-63
2023/05/17 02:34:17;;;;;;;10.10;3.60;;;;;;;12.96;98.37;95054.10;106645;1276;25342;-63
2023/05/17 02:36:47;;;;;;;10.80;3.60;;;;;;;12.94;97.94;95054.88;106618;1276;22878;-62
2023/05/17 02:39:15;;;;;;;12.20;3.60;;;;;;;12.99;98.47;95053.29;106592;1276;22574;-62
2023/05/17 02:41:43;;;;;;;6.80;3.10;;;;;;;13.03;98.05;95054.03;106578;1276;22665;-62
2023/05/17 02:44:11;;;;;;;13.40;3.90;;;;;;;13.09;98.71;95054.85;106594;1276;23944;-63
2023/05/17 02:46:39;;;;;;;9.30;3.00;;;;;;;13.17;98.99;95053.83;106585;1276;22528;-62
2023/05/17 02:49:08;;;;;;;9.30;3.30;;;;;;;13.20;97.95;95053.40;106623;1276;22629;-63
2023/05/17 02:51:36;;;;;;;11.30;3.50;;;;;;;13.18;97.51;95056.63;106569;1276;25536;-63
2023/05/17 02:54:04;;;;;;;10.40;3.40;;;;;;;13.19;97.48;95055.70;106538;1276;22528;-63
2023/05/17 02:56:32;;;;;;;16.00;3.50;;;;;;;13.19;97.24;95051.65;106518;1276;22527;-62
2023/05/17 02:59:01;;;;;;;13.10;3.40;;;;;;;13.28;97.95;95055.59;106608;1276;22520;-62
2023/05/17 03:01:29;;;;;;;6.20;2.90;;;;;;;13.30;97.07;95050.02;106648;1276;22868;-62
2023/05/17 03:03:58;;;;;;;9.10;2.80;;;;;;;13.24;96.63;95047.58;106609;1276;22949;-62
2023/05/17 03:06:29;;;;;;;12.00;3.90;;;;;;;13.28;97.06;95046.24;106584;1276;25329;-62
2023/05/17 03:08:57;;;;;;;11.60;3.50;;;;;;;13.31;97.09;95046.46;106563;1276;22545;-62
2023/05/17 03:11:25;;;;;;;10.80;3.20;;;;;;;13.32;97.14;95046.79;106643;1276;24227;-62
2023/05/17 03:13:55;;;;;;;12.50;3.30;;;;;;;13.38;97.49;95045.32;106573;1276;22650;-62
2023/05/17 03:16:26;;;;;;;13.90;5.50;;;;;;;13.48;97.66;95046.88;106562;1276;22517;-62
2023/05/17 03:18:54;;;;;;;15.80;6.40;;;;;;;13.52;96.92;95049.39;106576;1276;25393;-62
2023/05/17 03:21:23;;;;;;;16.10;5.60;;;;;;;13.41;95.47;95057.91;106641;1276;22537;-62
2023/05/17 03:23:51;;;;;;;16.90;4.50;;;;;;;13.29;95.42;95060.30;106567;1276;22887;-62
2023/05/17 03:26:19;;;;;;;7.10;3.60;;;;;;;13.31;96.21;95062.36;106581;1276;25472;-62
2023/05/17 03:28:51;;;;;;;9.80;3.90;;;;;;;13.24;95.54;95067.91;106528;1276;24480;-63
2023/05/17 03:31:19;;;;;;;14.60;3.70;;;;;;;13.21;96.10;95064.83;106602;1275;22514;-63
2023/05/17 03:33:48;;;;;;;8.90;3.90;;;;;;;13.30;96.93;95063.99;106662;1276;25393;-63
2023/05/17 03:36:17;;;;;;;10.70;3.50;;;;;;;13.30;96.19;95065.23;106581;1276;25504;-62
2023/05/17 03:38:46;;;;;;;15.70;3.50;;;;;;;13.24;95.55;95065.60;106575;1276;22628;-63
2023/05/17 03:41:14;;;;;;;12.10;3.20;;;;;;;13.22;96.02;95069.00;106524;1266;22578;-62
2023/05/17 03:43:42;;;;;;;8.10;4.10;;;;;;;13.21;95.91;95073.46;106345;1276;25386;-63
2023/05/17 03:46:13;;;;;;;12.30;3.30;;;;;;;13.23;96.29;95073.41;106600;1276;22646;-62
2023/05/17 03:48:41;;;;;;;15.30;4.10;;;;;;;13.27;96.52;95081.59;106528;1276;25462;-62
2023/05/17 03:51:11;;;;;;;8.60;3.10;;;;;;;13.27;96.13;95087.23;106634;1276;25297;-62
2023/05/17 03:53:42;;;;;;;12.10;4.00;;;;;;;13.26;95.85;95084.61;106603;1276;24359;-62
2023/05/17 03:56:10;;;;;;;16.50;6.70;;;;;;;13.19;95.35;95089.96;106462;1276;22527;-62
2023/05/17 03:58:39;;;;;;;13.00;6.40;;;;;;;13.08;94.95;95094.96;106578;1276;22516;-61
2023/05/17 04:01:07;;;;;;;16.30;6.10;;;;;;;13.04;95.81;95090.88;106652;1276;22513;-61
2023/05/17 04:03:36;;;;;;;17.20;7.60;;;;;;;13.09;96.70;95096.36;106555;1276;25396;-61
2023/05/17 04:06:06;;;;;;;27.10;10.70;;;;;;;13.07;97.03;95107.35;106609;1276;24246;-62
2023/05/17 04:08:35;;;;;;;25.90;14.50;;;;;;;13.11;97.62;95111.46;106632;1276;22621;-61
2023/05/17 04:11:09;;;;;;;22.50;14.00;;;;;;;13.17;97.86;95108.58;106505;1276;25393;-61
2023/05/17 04:13:39;;;;;;;64.70;34.30;;;;;;;13.28;97.86;95104.52;106590;1276;25261;-61
2023/05/17 04:16:08;;;;;;;13.60;7.70;;;;;;;13.34;97.46;95107.30;106616;1276;22637;-61
2023/05/17 04:18:38;;;;;;;14.50;7.90;;;;;;;13.38;97.22;95106.95;106567;1276;22635;-62
2023/05/17 04:21:06;;;;;;;18.70;9.90;;;;;;;13.40;96.90;95111.84;106619;1276;22532;-61
2023/05/17 04:23:35;;;;;;;204.90;83.70;;;;;;;13.38;96.71;95086.27;106567;1276;22530;-61
2023/05/17 04:26:04;;;;;;;150.60;65.00;;;;;;;13.33;96.46;95089.67;106564;1276;25390;-62
2023/05/17 04:28:35;;;;;;;55.70;24.50;;;;;;;13.31;96.43;95089.20;106601;1276;24214;-61
2023/05/17 04:31:07;;;;;;;23.50;12.20;;;;;;;13.26;96.42;95090.45;106588;1276;22532;-62
2023/05/17 04:33:36;;;;;;;41.30;21.90;;;;;;;13.28;96.73;95089.50;106578;1276;22532;-61
2023/05/17 04:36:06;;;;;;;55.20;31.50;;;;;;;13.35;97.42;95080.25;106612;1276;22565;-62
2023/05/17 04:38:34;;;;;;;70.10;41.00;;;;;;;13.37;96.78;95076.63;106467;1275;24397;-62
2023/05/17 04:41:04;;;;;;;45.40;27.10;;;;;;;13.39;97.36;95074.92;106568;1276;26714;-61
2023/05/17 04:43:33;;;;;;;21.70;11.10;;;;;;;13.43;96.64;95071.10;106620;1276;25405;-61
2023/05/17 04:46:04;;;;;;;14.50;6.40;;;;;;;13.41;96.21;95072.22;106522;1276;22538;-62
2023/05/17 04:48:33;;;;;;;18.70;10.60;;;;;;;13.40;96.57;95068.56;106615;1276;22516;-61
2023/05/17 04:51:06;;;;;;;12.40;4.70;;;;;;;13.47;97.23;95064.23;106607;1276;22524;-61
2023/05/17 04:53:34;;;;;;;15.90;7.10;;;;;;;13.47;96.67;95060.71;106549;1253;22550;-61
2023/05/17 04:56:07;;;;;;;13.20;8.30;;;;;;;13.48;96.75;95061.20;106657;1276;22524;-62
2023/05/17 04:58:36;;;;;;;22.40;13.30;;;;;;;13.53;97.34;95055.33;106641;1276;24209;-62
2023/05/17 05:01:04;;;;;;;10.90;6.60;;;;;;;13.57;97.13;95056.05;106659;1276;22516;-63
2023/05/17 05:03:33;;;;;;;14.60;8.20;;;;;;;13.62;97.33;95054.98;106599;1276;25431;-61
2023/05/17 05:06:03;;;;;;;10.80;6.40;;;;;;;13.69;97.35;95055.98;106631;1276;22529;-63
2023/05/17 05:08:32;;;;;;;13.60;5.60;;;;;;;13.78;97.57;95051.20;106606;1276;25468;-63
2023/05/17 05:11:00;;;;;;;16.40;7.30;;;;;;;13.82;97.40;95047.12;106541;1276;25284;-63
2023/05/17 05:13:30;;;;;;;13.90;6.90;;;;;;;13.88;97.24;95045.32;106641;1276;25494;-63
2023/05/17 05:15:59;;;;;;;11.60;7.60;;;;;;;13.92;96.85;95041.78;106616;1273;25407;-62
2023/05/17 05:18:28;;;;;;;15.60;9.30;;;;;;;13.98;96.86;95045.59;106710;1276;26626;-65
2023/05/17 05:20:58;;;;;;;69.70;47.10;;;;;;;14.09;97.24;95043.39;106569;1276;22655;-63
2023/05/17 05:23:26;;;;;;;27.80;17.40;;;;;;;14.16;96.88;95046.13;106669;1276;24426;-62
2023/05/17 05:25:54;;;;;;;12.90;7.60;;;;;;;14.25;97.20;95050.68;106890;1276;22541;-63
2023/05/17 05:28:22;;;;;;;16.60;9.90;;;;;;;14.24;95.58;95062.58;106665;1276;22632;-62
2023/05/17 05:30:59;;;;;;;23.20;15.70;;;;;;;14.15;94.66;95063.30;106468;1276;24420;-62
2023/05/17 05:33:31;;;;;;;36.90;22.70;;;;;;;14.03;94.57;95067.32;106581;1253;25399;-62
2023/05/17 05:35:59;;;;;;;20.00;13.60;;;;;;;14.01;95.36;95065.62;106616;1276;24288;-62
2023/05/17 05:38:28;;;;;;;28.40;16.30;;;;;;;14.01;95.51;95071.13;106578;1276;22524;-61
2023/05/17 05:40:56;;;;;;;25.60;16.90;;;;;;;14.07;96.39;95074.96;106593;1276;24388;-63
2023/05/17 05:43:24;;;;;;;14.40;5.50;;;;;;;14.12;96.25;95072.09;106494;1272;25265;-61
2023/05/17 05:45:53;;;;;;;12.80;9.60;;;;;;;14.16;96.16;95068.77;106544;1276;22674;-63
2023/05/17 05:48:22;;;;;;;11.30;6.30;;;;;;;14.22;96.22;95071.48;106531;1276;25399;-63
2023/05/17 05:50:50;;;;;;;14.40;9.00;;;;;;;14.22;95.55;95069.40;106512;1276;25393;-62
2023/05/17 05:53:18;;;;;;;16.90;12.90;;;;;;;14.28;96.29;95071.61;106664;1276;22512;-62
2023/05/17 05:55:55;;;;;;;16.10;10.40;;;;;;;14.33;96.12;95072.11;106634;1276;23146;-61
2023/05/17 05:58:23;;;;;;;12.00;6.00;;;;;;;14.42;96.40;95070.52;106828;1267;25465;-62
2023/05/17 06:00:52;;;;;;;16.70;10.40;;;;;;;14.46;96.32;95075.45;106500;1276;22520;-62
2023/05/17 06:03:20;;;;;;;14.30;11.70;;;;;;;14.50;96.05;95075.44;106399;1276;22559;-62
2023/05/17 06:05:48;;;;;;;21.00;13.10;;;;;;;14.49;95.51;95079.21;106533;1276;25353;-63
2023/05/17 06:08:17;;;;;;;26.20;16.70;;;;;;;14.55;95.98;95081.86;106609;1276;25195;-61
2023/05/17 06:10:45;;;;;;;17.30;8.90;;;;;;;14.61;96.07;95086.00;106604;1275;22531;-62
2023/05/17 06:13:13;;;;;;;14.70;7.40;;;;;;;14.59;94.95;95079.39;106625;1276;24337;-62
2023/05/17 06:15:41;;;;;;;30.90;24.00;;;;;;;14.53;94.79;95085.45;106562;1276;25521;-62
2023/05/17 06:18:10;;;;;;;10.60;6.30;;;;;;;14.50;94.83;95091.92;106731;1276;22619;-63
2023/05/17 06:20:38;;;;;;;62.00;38.90;;;;;;;14.48;94.81;95087.42;106708;1276;22636;-67
2023/05/17 06:23:06;;;;;;;53.80;34.00;;;;;;;14.45;94.70;95092.52;106537;1276;22768;-62
2023/05/17 06:25:34;;;;;;;104.20;66.60;;;;;;;14.47;95.39;95098.98;106680;1259;22635;-63
2023/05/17 06:28:03;;;;;;;14.40;9.40;;;;;;;14.52;95.47;95109.21;106606;1276;24261;-64
2023/05/17 06:30:31;;;;;;;16.70;7.50;;;;;;;14.56;95.67;95110.11;106472;1276;25428;-62
2023/05/17 06:33:00;;;;;;;15.60;6.20;;;;;;;14.59;95.21;95105.94;106833;1276;22644;-62
2023/05/17 06:35:29;;;;;;;19.50;8.90;;;;;;;14.61;95.07;95107.59;106912;1276;22520;-62
2023/05/17 06:38:07;;;;;;;18.50;9.70;;;;;;;14.62;94.79;95109.32;106834;1276;24206;-63
2023/05/17 06:40:35;;;;;;;30.50;24.40;;;;;;;14.62;94.96;95111.44;106879;1276;22574;-63
2023/05/17 06:43:04;;;;;;;19.20;13.10;;;;;;;14.65;95.14;95112.02;106857;1276;24321;-64
2023/05/17 06:45:32;;;;;;;12.20;5.80;;;;;;;14.72;95.49;95116.34;106516;1276;22521;-64
2023/05/17 06:48:00;;;;;;;9.80;5.20;;;;;;;14.74;94.90;95120.69;106569;1276;25345;-63
2023/05/17 06:50:30;;;;;;;16.40;9.60;;;;;;;14.73;94.61;95126.93;106686;1276;24198;-62
2023/05/17 06:52:59;;;;;;;21.80;7.80;;;;;;;14.74;94.88;95125.12;106588;1276;26497;-63
2023/05/17 06:55:27;;;;;;;14.10;6.80;;;;;;;14.76;94.67;95120.58;106709;1276;24231;-62
2023/05/17 06:57:59;;;;;;;10.80;5.40;;;;;;;14.76;94.05;95120.46;106553;1276;22645;-65
2023/05/17 07:00:27;;;;;;;13.20;9.00;;;;;;;14.68;93.53;95125.35;106476;1277;25271;-61
2023/05/17 07:02:56;;;;;;;12.00;8.30;;;;;;;14.64;93.79;95131.36;106591;1277;22563;-62
2023/05/17 07:05:26;;;;;;;10.50;5.80;;;;;;;14.64;93.96;95130.14;106649;1275;22520;-61
2023/05/17 07:07:57;;;;;;;11.90;6.60;;;;;;;14.62;93.48;95132.33;106751;1277;22516;-63
2023/05/17 07:10:25;;;;;;;14.70;5.90;;;;;;;14.59;93.55;95131.25;106501;1266;22525;-62
2023/05/17 07:12:53;;;;;;;13.40;5.00;;;;;;;14.57;93.35;95128.48;106656;1277;25472;-61
2023/05/17 07:15:22;;;;;;;20.10;11.10;;;;;;;14.47;92.37;95122.52;106748;1277;22524;-62
2023/05/17 07:17:50;;;;;;;13.00;6.30;;;;;;;14.41;92.48;95127.18;106645;1277;22533;-62
2023/05/17 07:20:18;;;;;;;8.00;5.30;;;;;;;14.37;92.63;95130.86;106649;1277;24304;-62
2023/05/17 07:22:47;;;;;;;13.20;8.50;;;;;;;14.36;92.96;95127.71;106576;1277;26737;-62
2023/05/17 07:25:17;;;;;;;16.90;12.10;;;;;;;14.36;92.94;95128.06;106538;1277;22596;-64
2023/05/17 07:27:45;;;;;;;13.40;6.80;;;;;;;14.36;93.56;95132.52;106466;1271;25473;-63
2023/05/17 07:30:14;;;;;;;15.30;6.90;;;;;;;14.36;93.27;95140.63;107401;1277;22564;-60
2023/05/17 07:32:42;;;;;;;14.90;7.60;;;;;;;14.43;93.68;95141.06;106677;1277;22524;-61
2023/05/17 07:35:10;;;;;;;12.80;4.90;;;;;;;14.52;93.76;95143.89;106683;1277;22525;-61
2023/05/17 07:37:39;;;;;;;10.70;8.10;;;;;;;14.59;93.65;95141.52;106694;1277;24224;-61
2023/05/17 07:40:08;;;;;;;13.60;6.80;;;;;;;14.61;93.21;95143.70;106440;1273;22520;-61
2023/05/17 07:42:36;;;;;;;11.30;5.40;;;;;;;14.61;92.77;95154.87;106703;1277;22527;-60
2023/05/17 07:45:06;;;;;;;13.90;5.00;;;;;;;14.56;92.29;95147.81;106662;1277;22505;-61
2023/05/17 07:47:34;;;;;;;15.00;4.70;;;;;;;14.58;92.89;95151.26;106774;1277;24190;-60
2023/05/17 07:50:03;;;;;;;10.60;4.80;;;;;;;14.65;93.31;95157.52;106799;1278;22867;-61
2023/05/17 07:52:32;;;;;;;11.30;4.20;;;;;;;14.72;92.97;95165.05;106702;1277;25509;-63
2023/05/17 07:55:00;;;;;;;13.20;4.70;;;;;;;14.70;92.15;95167.41;106437;1277;22639;-61
2023/05/17 07:57:28;;;;;;;12.60;4.00;;;;;;;14.72;92.64;95167.69;106499;1277;22517;-61
2023/05/17 07:59:56;;;;;;;10.20;5.60;;;;;;;14.78;92.51;95173.66;106503;1276;25380;-62
2023/05/17 08:02:24;;;;;;;18.80;14.50;;;;;;;14.88;92.80;95177.11;106612;1277;24385;-62
2023/05/17 08:04:53;;;;;;;13.50;4.40;;;;;;;14.96;92.54;95175.72;106544;1277;24420;-62
2023/05/17 08:07:23;;;;;;;15.30;5.70;;;;;;;15.05;92.43;95181.73;106570;1277;22510;-63
2023/05/17 08:09:52;;;;;;;8.90;5.20;;;;;;;15.11;92.19;95185.02;106514;1277;22520;-61
2023/05/17 08:12:20;;;;;;;17.00;5.50;;;;;;;15.09;90.79;95179.96;106075;1277;571510;-61
2023/05/17 08:14:48;;;;;;;21.80;6.20;;;;;;;15.07;91.24;95175.61;106606;1277;22571;-61
2023/05/17 08:17:16;;;;;;;14.50;8.60;;;;;;;15.07;91.36;95170.29;106721;1277;22522;-62
2023/05/17 08:19:44;;;;;;;15.70;5.50;;;;;;;15.09;91.67;95170.91;106521;1277;22755;-62
2023/05/17 08:22:12;;;;;;;16.50;7.50;;;;;;;15.10;90.74;95167.86;106217;1269;22524;-64
2023/05/17 08:24:41;;;;;;;14.90;5.80;;;;;;;15.17;91.41;95165.41;106354;1277;25268;-62
2023/05/17 08:27:09;;;;;;;19.10;6.10;;;;;;;15.27;91.35;95168.52;106290;1277;25390;-61
2023/05/17 08:29:37;;;;;;;10.00;5.80;;;;;;;15.38;90.98;95175.30;106688;1277;22521;-62
2023/05/17 08:32:08;;;;;;;13.70;8.50;;;;;;;15.43;90.22;95179.19;106776;1277;22632;-64
2023/05/17 08:34:36;;;;;;;15.20;8.30;;;;;;;15.42;89.86;95180.45;106686;1277;22632;-63
2023/05/17 08:37:04;;;;;;;13.30;5.50;;;;;;;15.48;89.84;95179.16;106658;1277;25236;-62
2023/05/17 08:39:32;;;;;;;15.00;7.80;;;;;;;15.56;90.35;95179.45;106690;1277;22587;-63
2023/05/17 08:42:01;;;;;;;15.20;7.40;;;;;;;15.69;89.80;95179.11;106719;1277;22639;-62
2023/05/17 08:44:29;;;;;;;9.90;5.70;;;;;;;15.74;88.80;95182.42;106547;1277;25470;-62
2023/05/17 08:46:59;;;;;;;7.90;3.50;;;;;;;15.80;88.67;95181.13;106394;1277;22519;-62
2023/05/17 08:49:33;;;;;;;8.70;3.20;;;;;;;15.91;89.08;95189.45;106710;1277;24359;-60
2023/05/17 08:52:02;;;;;;;9.10;3.40;;;;;;;16.01;88.10;95192.89;106682;1277;25275;-61
2023/05/17 08:54:30;;;;;;;16.60;4.40;;;;;;;16.11;86.90;95194.74;106781;1277;24206;-63
2023/05/17 08:57:01;;;;;;;13.50;4.20;;;;;;;16.13;85.11;95198.04;106560;1277;24627;-61
2023/05/17 08:59:32;;;;;;;39.20;19.70;;;;;;;16.23;85.90;95203.61;106364;1277;22642;-61
2023/05/17 09:02:01;;;;;;;9.50;4.30;;;;;;;16.25;85.70;95207.21;106724;1277;22720;-60
2023/05/17 09:04:30;;;;;;;8.50;3.60;;;;;;;16.29;85.85;95207.59;106529;1277;22510;-63
2023/05/17 09:06:59;;;;;;;10.60;3.00;;;;;;;16.33;85.11;95203.13;106437;1277;24229;-63
2023/05/17 09:09:27;;;;;;;6.80;3.30;;;;;;;16.36;85.42;95206.52;106677;1272;25494;-63
2023/05/17 09:11:56;;;;;;;7.00;3.10;;;;;;;16.44;84.92;95202.59;106511;1277;25461;-63
2023/05/17 09:14:24;;;;;;;9.90;3.20;;;;;;;16.52;85.06;95197.77;106524;1277;24645;-63
2023/05/17 09:16:56;;;;;;;10.70;3.40;;;;;;;16.62;85.19;95197.81;106639;1277;25462;-62
2023/05/17 09:19:25;;;;;;;8.20;3.40;;;;;;;16.71;84.48;95200.23;106526;1277;22635;-62
2023/05/17 09:21:54;;;;;;;5.70;2.60;;;;;;;16.81;84.19;95203.34;106538;1254;22541;-63
2023/05/17 09:24:28;;;;;;;9.00;3.10;;;;;;;16.91;84.30;95200.89;106685;1277;25523;-63
2023/05/17 09:27:02;;;;;;;10.90;3.20;;;;;;;16.96;81.04;95199.93;106616;1274;22523;-63
2023/05/17 09:29:31;;;;;;;7.10;2.40;;;;;;;16.96;81.76;95203.10;106654;1277;22649;-64
2023/05/17 09:32:17;;;;;;;5.60;2.30;;;;;;;17.05;81.52;95201.77;106417;1277;25402;-65
2023/05/17 09:34:48;;;;;;;10.10;3.40;;;;;;;17.21;81.16;95206.09;106408;1277;22685;-63
2023/05/17 09:37:18;;;;;;;7.40;2.90;;;;;;;17.25;80.17;95206.63;106511;1275;25479;-63
2023/05/17 09:39:47;;;;;;;6.70;2.90;;;;;;;17.26;79.13;95207.99;106484;1277;22520;-64
2023/05/17 09:42:16;;;;;;;8.40;3.10;;;;;;;17.29;80.21;95206.95;106446;1277;23067;-63
2023/05/17 09:45:02;;;;;;;10.00;2.80;;;;;;;17.41;80.46;95207.25;106756;1277;25179;-63
2023/05/17 09:47:34;;;;;;;5.90;2.40;;;;;;;17.53;79.95;95208.55;106663;1277;25339;-63
2023/05/17 09:50:03;;;;;;;9.50;3.20;;;;;;;17.56;77.04;95213.77;106452;1277;24273;-64
2023/05/17 09:52:35;;;;;;;3.80;2.00;;;;;;;17.57;77.47;95223.33;106558;1277;26516;-63
2023/05/17 09:55:05;;;;;;;7.40;2.40;;;;;;;17.54;76.79;95230.23;106696;1277;24132;-63
2023/05/17 09:57:38;;;;;;;6.10;2.70;;;;;;;17.44;77.17;95226.84;106751;1277;22639;-63
2023/05/17 10:00:11;;;;;;;11.20;3.10;;;;;;;17.37;77.32;95232.01;106322;1277;22530;-63
2023/05/17 10:02:46;;;;;;;10.10;2.20;;;;;;;17.27;77.47;95237.65;106598;1277;22530;-63
2023/05/17 10:05:16;;;;;;;;;;;;;;;17.20;77.76;95242.98;106779;1277;22531;-63
2023/05/17 10:07:47;;;;;;;10.60;2.20;;;;;;;17.09;77.71;95242.80;106686;1277;25463;-64
2023/05/17 10:10:16;;;;;;;9.60;2.40;;;;;;;16.97;77.80;95244.29;106641;1277;24319;-63
2023/05/17 10:12:46;;;;;;;5.10;2.20;;;;;;;16.87;77.82;95243.71;106779;1277;25892;-63
2023/05/17 10:15:16;;;;;;;8.90;2.60;;;;;;;16.76;77.70;95248.29;106568;1277;25386;-63
2023/05/17 10:17:45;;;;;;;9.80;2.30;;;;;;;16.65;77.62;95251.33;106666;1277;25220;-63
2023/05/17 10:20:16;;;;;;;6.90;2.80;;;;;;;16.57;77.88;95256.51;106586;1277;24317;-63
2023/05/17 10:22:46;;;;;;;9.70;2.20;;;;;;;16.55;78.49;95250.89;106546;1277;22535;-63
2023/05/17 10:25:15;;;;;;;5.00;1.90;;;;;;;16.56;78.49;95248.90;106535;1277;24253;-63
2023/05/17 10:27:43;;;;;;;7.00;1.80;;;;;;;16.60;78.71;95249.05;106517;1278;24252;-63
2023/05/17 10:30:14;;;;;;;5.20;1.90;;;;;;;16.66;78.74;95255.89;106547;1277;22528;-63
2023/05/17 10:32:44;;;;;;;3.60;1.80;;;;;;;16.76;79.25;95253.47;106567;1256;24221;-63
2023/05/17 10:35:14;;;;;;;8.70;1.70;;;;;;;16.92;79.18;95258.58;106648;1277;22527;-63
2023/05/17 10:37:42;;;;;;;5.40;2.00;;;;;;;17.07;79.36;95259.27;106547;1277;22527;-63
2023/05/17 10:40:16;;;;;;;6.80;1.90;;;;;;;17.16;77.10;95262.73;106539;1277;24304;-63
2023/05/17 10:42:53;;;;;;;7.50;2.40;;;;;;;17.17;76.55;95266.02;106502;1256;22738;-63
2023/05/17 10:45:24;;;;;;;4.70;1.80;;;;;;;17.20;75.85;95265.04;106569;1278;22530;-63
2023/05/17 10:47:54;;;;;;;11.70;2.10;;;;;;;17.20;75.22;95265.38;106539;1277;22583;-63
2023/05/17 10:50:24;;;;;;;6.30;2.00;;;;;;;17.24;75.61;95266.23;106571;1277;22548;-63
2023/05/17 10:52:55;;;;;;;10.30;2.90;;;;;;;17.29;75.31;95272.92;106550;1277;25545;-63
2023/05/17 10:55:44;;;;;;;5.00;2.20;;;;;;;17.29;73.46;95269.70;106535;1277;22523;-63
2023/05/17 10:58:14;;;;;;;9.60;2.70;;;;;;;17.40;74.43;95271.99;106505;1277;25357;-63
2023/05/17 11:00:48;;;;;;;6.00;1.90;;;;;;;17.45;74.01;95276.71;106546;1277;24070;-63
2023/05/17 11:03:19;;;;;;;6.80;2.30;;;;;;;17.60;74.54;95274.35;106555;1260;24187;-63
2023/05/17 11:06:09;;;;;;;7.10;2.20;;;;;;;17.63;73.01;95275.80;106529;1277;24351;-64
2023/05/17 11:09:17;;;;;;;10.10;2.70;;;;;;;17.63;72.59;95273.15;106535;1277;25379;-63
2023/05/17 11:12:05;;;;;;;7.00;2.90;;;;;;;17.60;72.36;95274.38;106453;1278;25358;-63
2023/05/17 11:14:53;;;;;;;6.60;2.10;;;;;;;17.56;71.37;95270.48;106551;1277;24500;-64
2023/05/17 11:17:42;;;;;;;7.20;2.40;;;;;;;17.52;71.68;95266.58;106546;1277;22519;-63
2023/05/17 11:20:13;;;;;;;8.30;2.40;;;;;;;17.49;71.46;95264.96;106525;1277;22523;-63
2023/05/17 11:23:01;;;;;;;7.50;2.30;;;;;;;17.51;72.20;95260.40;106480;1277;22523;-63
2023/05/17 11:25:31;;;;;;;6.10;2.20;;;;;;;17.60;73.02;95265.13;106461;1278;22527;-63
2023/05/17 11:28:05;;;;;;;4.90;2.50;;;;;;;17.67;73.13;95269.04;106453;1278;22639;-63
2023/05/17 11:30:38;;;;;;;6.20;2.50;;;;;;;17.67;72.67;95274.54;106534;1277;22595;-63
2023/05/17 11:33:07;;;;;;;7.00;2.20;;;;;;;17.61;71.99;95268.07;106529;1278;24374;-63
2023/05/17 11:35:55;;;;;;;6.50;2.60;;;;;;;17.48;71.46;95261.63;106406;1278;22550;-63